Karacaören, Turkey

8:49 PM EET on March 04, 2015 (GMT +0200)
Gyumri Shirak Airport | Change Station
CLOSE
Current Station
Airport
Location: Gyumri Shirak Airport,
Elevation: 5000 ft
Nearby Weather Stations

Elev 5000 ft 40.75 °N, 43.86 °E | Updated 19 minutes ago

Mostly Cloudy
Mostly Cloudy
30 °F
Feels Like 18 °F
N
18
Wind Variable Wind from North
Gusts 31 mph

Today
High -- | Low -- °F
--% Chance of Precip.
Yesterday
High -- | Low -- °F
Precip. -- in
5:37 AM 5:01 PM
Waxing Gibbous, 99% visible
Pressure 29.92 in
Visibility 6.2 miles
Clouds Scattered Clouds 5000 ft
Mostly Cloudy 10000 ft
Windchill 18 °F
Dew Point 19 °F
Humidity 64%
Rainfall 0.00 in
Snow Depth Not available.
UV 0 out of 12
Pollen Not available.
Air Quality Not available.
Flu Activity Not available.
METAR UDSG 041830Z 35008G14MPS 9999 SCT050 BKN100 M01/M07 Q1013 R02/CLRD70 NOSIG

More Conditions Fewer Conditions

Pressure 29.92 in
Visibility 6.2 miles
Clouds Scattered Clouds 5000 ft
Mostly Cloudy 10000 ft
Windchill 18 °F
Dew Point 19 °F
Humidity 64%
Rainfall 0.00 in
Snow Depth Not available.
UV 0 out of 12
Pollen Not available.
Air Quality Not available.
Flu Activity Not available.
METAR UDSG 041830Z 35008G14MPS 9999 SCT050 BKN100 M01/M07 Q1013 R02/CLRD70 NOSIG

More Conditions Fewer Conditions

10-Day Weather Forecast

Almanac

Astronomy

Mar. 04, 2015 Rise Set
Actual Time
Civil Twilight
Nautical Twilight
Astronomical Twilight
Moon
Length of Visible Light
Length of Day
Tomorrow will be .
, % of the Moon is Illuminated

Today's Extremes

Country Highs Country Lows

Community

WunderPhotos

Upload Photos

1,802,536 photos uploaded!

WunderBlogs® & News

Nearby

Air Quality

  Air Quality AQ Index Pollutant
Not available.

Snow Depth

Station Depth Elevation

Earthquake Activity

City Distance Mag. Time & Date
Minimum magnitude displayed is 2.5.

Coastal Water Temperatures

Place Temperature

Nearby Weather Stations